Aérodrome :
LOGIN :

S'inscrire | Disclaimer

   EN    FR    IT 

 










Légende :    VFR   VFR Marginal   IFR   IFR Intensif   IFR Très Intensif
Visi : 
Plafond : 
>= 8 km
>= 3000ft
5 à 8 km
1000 à 3000 ft
1500m à 5 km
500 à 1000 ft
800 à 1500m
200 à 500 ft
< 800m
< 200 ft
Symboles :   Orages  Brouillard  Fortes neiges  Fortes précipitations  Vent > 20 kt
SIGMETs :   Divers  Orages  Givrage  Turbulence  Onde Orograph.  Cendres Volcan.






- Altitude de l'aérodrome : 587 ft
- Code IATA : XCR


LFOK - Chalons Vatry

DERNIER METAR :
  • 291630Z AUTO 23009KT 9999 FEW026 SCT036 BKN050 07/04 Q1016 NOSIG

METARs EXPIRÉS :
  • 291600Z AUTO 24009KT 9999 FEW011 BKN054 07/04 Q1016 NOSIG
  • 291530Z AUTO 25011KT 9999 FEW020 SCT034 OVC052 08/05 Q1016 NOSIG
  • 291500Z AUTO 26010KT 9999 SCT034 OVC047 08/05 Q1015 NOSIG
  • 291430Z AUTO 26014KT 9999 BKN029 BKN039 BKN045 08/04 Q1015 NOSIG
  • 291400Z AUTO 27012KT 9999 BKN023 BKN030 BKN037 08/04 Q1015 TEMPO 25017G27KT

TAF TAF LFOK
Valide du 29 à 12h jusqu'au 30 à 12h UTC


291100Z 2912/3012 26015KT 9999 BKN030
TEMPO 2912/2915 25017G27KT
BECMG 2918/2921 19010KT
PROB40 2923/3006 3000 BR OVC003
BECMG 3010/3012 RA BKN007 OVC013



MET'MAP, la Météo Aéronautique d'un coup d'oeil ! - Copyright ORBIFLY Décembre 2007 - Disclaimer

ORBIFLY MET'MAP TEAM :

Programmation & Développement : Alexandra Zaïnal
Sur une idée originale de : Baudouin d'Aumeries
Assistance à la programmation : Marc-Olivier Méhu
Soutien technique & logistique : Manuel Goepfert

Contact : metmap@orbifly.com




SOURCES & CREDITS :

   NOAA